Time;durP1;ratioP1;P1;durP2;ratioP2;P2;SDS_P1;SDS_P2;PMS_P1;PMS_P2;Temp;Humidity;BMP_temperature;BMP_pressure;BME280_temperature;BME280_humidity;BME280_pressure;Samples;Min_cycle;Max_cycle;Signal;HPM_P1;HPM_P2
2021/10/29 00:02:15;;;;;;;0.00;0.00;;;;;;;6.58;70.92;99988.56;5046124;28;20037;-74
2021/10/29 00:04:41;;;;;;;0.00;0.00;;;;;;;6.53;71.28;99981.25;5030054;28;20029;-74
2021/10/29 00:07:08;;;;;;;0.00;0.00;;;;;;;6.47;71.52;99976.00;5030026;28;20021;-74
2021/10/29 00:09:35;;;;;;;0.00;0.00;;;;;;;6.49;71.71;99979.25;5029818;28;20452;-72
2021/10/29 00:12:01;;;;;;;0.00;0.00;;;;;;;6.50;72.39;99986.19;5046559;28;20025;-75
2021/10/29 00:14:27;;;;;;;0.00;0.00;;;;;;;6.48;72.06;99983.78;5046206;28;20079;-75
2021/10/29 00:16:52;;;;;;;0.00;0.00;;;;;;;6.39;72.24;99966.50;5046126;28;20030;-71
2021/10/29 00:19:18;;;;;;;0.00;0.00;;;;;;;6.43;72.27;99970.34;5030198;28;20525;-72
2021/10/29 00:21:44;;;;;;;0.00;0.00;;;;;;;6.36;72.28;99965.13;5029724;28;20026;-71
2021/10/29 00:24:10;;;;;;;0.00;0.00;;;;;;;6.35;72.49;99968.00;5030807;28;20030;-73
2021/10/29 00:26:35;;;;;;;0.00;0.00;;;;;;;6.27;72.60;99974.44;5030950;28;20151;-76
2021/10/29 00:29:01;;;;;;;0.10;0.10;;;;;;;6.21;72.49;99954.91;5029688;28;20059;-74
2021/10/29 00:31:26;;;;;;;0.00;0.00;;;;;;;6.25;71.98;99964.03;5029521;28;20032;-75
2021/10/29 00:33:52;;;;;;;0.00;0.00;;;;;;;6.20;71.62;99960.41;5029347;28;20033;-75
2021/10/29 00:36:17;;;;;;;0.00;0.00;;;;;;;6.22;71.38;99969.00;5029310;28;20410;-72
2021/10/29 00:38:43;;;;;;;0.10;0.10;;;;;;;6.10;71.27;99955.66;5030929;28;20549;-74
2021/10/29 00:41:08;;;;;;;0.00;0.00;;;;;;;6.15;71.15;99976.22;5030738;28;20029;-73
2021/10/29 00:43:34;;;;;;;0.00;0.00;;;;;;;6.09;71.28;99968.13;5029399;28;20108;-72
2021/10/29 00:45:59;;;;;;;0.00;0.00;;;;;;;6.06;71.65;99963.25;5030629;28;20034;-73
2021/10/29 00:48:25;;;;;;;0.45;0.45;;;;;;;5.99;71.69;99956.41;5030324;28;20624;-74
2021/10/29 00:50:51;;;;;;;0.10;0.10;;;;;;;5.97;71.74;99963.75;5029483;28;20045;-73
2021/10/29 00:53:16;;;;;;;0.00;0.00;;;;;;;5.91;72.32;99954.84;5029548;28;20032;-74
2021/10/29 00:55:42;;;;;;;1.17;1.17;;;;;;;5.83;72.29;99947.16;5030773;28;20103;-73
2021/10/29 00:58:07;;;;;;;0.00;0.00;;;;;;;5.85;71.96;99953.88;5030789;28;20113;-71
2021/10/29 01:00:33;;;;;;;0.00;0.00;;;;;;;5.83;71.60;99952.47;5045925;28;20064;-73
2021/10/29 01:02:59;;;;;;;0.00;0.00;;;;;;;5.78;72.06;99947.84;5034794;28;20064;-71
2021/10/29 01:05:25;;;;;;;0.00;0.00;;;;;;;5.82;72.24;99956.16;5049412;28;20029;-72
2021/10/29 01:07:52;;;;;;;0.00;0.00;;;;;;;5.79;72.20;99948.66;5049880;28;20091;-70
2021/10/29 01:10:17;;;;;;;0.00;0.00;;;;;;;5.74;72.09;99947.47;5034413;28;20053;-72
2021/10/29 01:12:43;;;;;;;0.10;0.10;;;;;;;5.69;71.94;99942.00;5049525;28;20060;-72
2021/10/29 01:15:09;;;;;;;0.00;0.00;;;;;;;5.61;72.04;99924.56;5033281;28;20470;-72
2021/10/29 01:17:36;;;;;;;0.00;0.00;;;;;;;5.71;71.70;99949.75;5032893;28;20466;-73
2021/10/29 01:20:04;;;;;;;0.00;0.00;;;;;;;5.67;71.94;99941.41;5033151;28;20033;-71
2021/10/29 01:22:29;;;;;;;0.00;0.00;;;;;;;5.61;71.88;99935.16;5033830;28;20103;-71
2021/10/29 01:24:55;;;;;;;0.05;0.05;;;;;;;5.52;72.65;99928.53;5034419;28;20029;-76
2021/10/29 01:27:21;;;;;;;0.00;0.00;;;;;;;5.48;72.43;99924.69;5032785;28;20053;-73
2021/10/29 01:29:49;;;;;;;0.00;0.00;;;;;;;5.51;72.53;99937.50;5033027;28;20036;-76
2021/10/29 01:32:15;;;;;;;0.00;0.00;;;;;;;5.53;72.87;99938.09;5032930;28;20463;-78
2021/10/29 01:34:42;;;;;;;0.00;0.00;;;;;;;5.46;72.74;99934.72;5032669;28;20536;-77
2021/10/29 01:37:09;;;;;;;0.00;0.00;;;;;;;5.42;72.61;99931.69;5033742;28;20044;-77
2021/10/29 01:39:35;;;;;;;0.00;0.00;;;;;;;5.44;72.76;99934.94;5032573;28;20470;-76
2021/10/29 01:42:02;;;;;;;0.00;0.00;;;;;;;5.40;73.08;99927.63;5032377;28;20102;-79
2021/10/29 01:44:28;;;;;;;0.00;0.00;;;;;;;5.45;73.04;99938.38;5032571;28;20065;-75
2021/10/29 01:46:53;;;;;;;0.00;0.00;;;;;;;5.44;73.04;99939.41;5032538;28;20060;-73
2021/10/29 01:49:19;;;;;;;0.00;0.00;;;;;;;5.43;72.99;99945.75;5033773;28;20645;-76
2021/10/29 01:51:45;;;;;;;0.00;0.00;;;;;;;5.39;72.88;99940.06;5032471;28;20041;-79
2021/10/29 01:54:11;;;;;;;0.00;0.00;;;;;;;5.36;72.76;99939.69;5032158;28;20538;-81
2021/10/29 01:56:37;;;;;;;0.00;0.00;;;;;;;5.37;73.09;99941.31;5032269;28;20029;-80
2021/10/29 01:59:03;;;;;;;0.00;0.00;;;;;;;5.38;73.11;99938.47;5049042;28;20167;-79
2021/10/29 02:01:28;;;;;;;0.00;0.00;;;;;;;5.37;72.88;99946.63;5048811;28;20037;-80
2021/10/29 02:03:54;;;;;;;0.00;0.00;;;;;;;5.34;73.12;99937.28;5046398;28;20029;-81
2021/10/29 02:06:19;;;;;;;0.00;0.00;;;;;;;5.24;72.85;99921.84;5048846;28;20029;-78
2021/10/29 02:08:46;;;;;;;0.00;0.00;;;;;;;5.33;72.78;99940.94;5031442;28;20029;-73
2021/10/29 02:11:11;;;;;;;0.00;0.00;;;;;;;5.20;73.15;99923.34;5033029;28;20042;-72
2021/10/29 02:13:37;;;;;;;0.00;0.00;;;;;;;5.20;73.41;99919.84;5032169;28;20087;-72
2021/10/29 02:16:03;;;;;;;0.00;0.00;;;;;;;5.29;73.14;99937.91;5033080;28;20108;-71
2021/10/29 02:18:29;;;;;;;0.00;0.00;;;;;;;5.22;73.39;99934.50;5032783;28;20474;-71
2021/10/29 02:20:54;;;;;;;0.00;0.00;;;;;;;5.26;73.33;99948.16;5033228;28;20029;-69
2021/10/29 02:23:19;;;;;;;0.00;0.00;;;;;;;5.11;73.29;99927.28;5032934;28;20077;-71
2021/10/29 02:25:45;;;;;;;0.00;0.00;;;;;;;5.20;73.29;99944.56;5032951;28;20025;-72
2021/10/29 02:28:16;;;;;;;0.00;0.00;;;;;;;5.27;73.29;99952.44;5048276;28;20418;-69
2021/10/29 02:30:42;;;;;;;0.00;0.00;;;;;;;5.21;73.21;99946.19;5032806;28;20072;-70
2021/10/29 02:33:08;;;;;;;0.00;0.00;;;;;;;5.20;74.02;99949.03;5033078;28;20033;-72
2021/10/29 02:35:33;;;;;;;0.00;0.00;;;;;;;5.20;73.69;99952.50;5032467;28;20033;-70
2021/10/29 02:37:59;;;;;;;0.00;0.00;;;;;;;5.22;74.02;99949.63;5031287;28;20128;-69
2021/10/29 02:40:24;;;;;;;0.00;0.00;;;;;;;5.19;73.79;99945.56;5032753;28;20029;-72
2021/10/29 02:42:50;;;;;;;0.00;0.00;;;;;;;5.20;73.77;99944.56;5032605;28;20053;-70
2021/10/29 02:45:15;;;;;;;0.00;0.00;;;;;;;5.23;73.69;99948.59;5032591;28;20108;-71
2021/10/29 02:47:46;;;;;;;0.00;0.00;;;;;;;5.11;74.52;99932.59;5032540;28;20513;-70
2021/10/29 02:50:12;;;;;;;0.00;0.00;;;;;;;5.20;74.50;99947.19;5032496;28;20033;-71
2021/10/29 02:52:37;;;;;;;0.00;0.00;;;;;;;5.12;74.24;99936.88;5047852;28;20052;-71
2021/10/29 02:55:03;;;;;;;0.00;0.00;;;;;;;5.18;74.78;99949.25;5032401;28;20045;-69
2021/10/29 02:57:29;;;;;;;0.00;0.00;;;;;;;5.17;74.72;99939.66;5032355;28;20108;-70
2021/10/29 02:59:54;;;;;;;0.00;0.00;;;;;;;5.13;75.05;99941.16;5032207;28;20037;-70
2021/10/29 03:02:20;;;;;;;0.00;0.00;;;;;;;5.09;75.21;99929.34;5031465;28;20528;-70
2021/10/29 03:04:45;;;;;;;0.00;0.00;;;;;;;5.14;75.08;99940.13;5031942;28;20083;-70
2021/10/29 03:07:11;;;;;;;0.00;0.00;;;;;;;5.17;75.39;99944.97;5032350;28;20025;-70
2021/10/29 03:09:36;;;;;;;0.00;0.00;;;;;;;5.12;75.30;99936.88;5031892;28;20033;-70
2021/10/29 03:12:02;;;;;;;0.00;0.00;;;;;;;5.17;75.57;99944.97;5047667;28;20405;-69
2021/10/29 03:14:27;;;;;;;0.00;0.00;;;;;;;5.17;75.57;99938.88;5032130;28;20475;-72
2021/10/29 03:16:53;;;;;;;0.00;0.00;;;;;;;5.11;75.60;99937.88;5031923;28;20040;-72
2021/10/29 03:19:18;;;;;;;0.00;0.00;;;;;;;5.17;75.85;99941.53;5031241;28;20521;-70
2021/10/29 03:21:44;;;;;;;0.00;0.00;;;;;;;5.12;75.47;99935.00;5031160;28;20105;-71
2021/10/29 03:24:09;;;;;;;0.00;0.00;;;;;;;5.11;75.75;99933.41;5030553;28;20040;-70
2021/10/29 03:26:35;;;;;;;0.00;0.00;;;;;;;5.09;75.33;99926.69;5029722;28;20052;-79
2021/10/29 03:29:00;;;;;;;0.40;0.40;;;;;;;5.09;75.28;99924.84;5026216;28;20030;-76
2021/10/29 03:31:25;;;;;;;0.00;0.00;;;;;;;5.12;75.64;99937.66;5021708;28;20076;-88
2021/10/29 03:33:51;;;;;;;0.00;0.00;;;;;;;5.04;75.20;99930.00;5015753;28;20030;-74
2021/10/29 03:36:17;;;;;;;0.00;0.00;;;;;;;5.01;75.55;99927.78;5021954;28;20094;-74
2021/10/29 03:39:00;;;;;;;0.00;0.00;;;;;;;4.95;75.08;99918.84;5022595;28;20029;-70
2021/10/29 03:41:30;;;;;;;0.00;0.00;;;;;;;5.01;75.12;99933.09;5022003;28;20380;-71
2021/10/29 03:46:24;;;;;;;0.00;0.00;;;;;;;4.88;75.40;99922.59;5021909;28;20095;-71
2021/10/29 03:51:37;;;;;;;0.10;0.10;;;;;;;4.90;75.51;99931.16;5020520;28;20052;-72
2021/10/29 03:56:29;;;;;;;0.00;0.00;;;;;;;4.83;75.59;99922.44;5016322;28;20021;-72
2021/10/29 03:58:57;;;;;;;0.00;0.00;;;;;;;4.79;76.22;99912.25;5026749;28;20021;-75
2021/10/29 04:01:23;;;;;;;0.00;0.00;;;;;;;4.89;78.92;99922.38;5029867;28;20033;-73
2021/10/29 04:03:49;;;;;;;0.00;0.00;;;;;;;4.94;79.70;99930.50;5028744;28;20036;-73
2021/10/29 04:06:15;;;;;;;0.00;0.00;;;;;;;4.92;79.20;99924.59;5030898;28;20025;-74
2021/10/29 04:08:41;;;;;;;0.00;0.00;;;;;;;4.77;79.64;99914.31;5030169;28;20029;-73
2021/10/29 04:11:07;;;;;;;0.00;0.00;;;;;;;4.83;79.65;99915.28;5029782;28;20406;-73
2021/10/29 04:13:34;;;;;;;0.25;0.25;;;;;;;4.77;79.54;99906.38;5031051;28;20033;-73
2021/10/29 04:16:02;;;;;;;0.00;0.00;;;;;;;4.91;79.15;99922.97;5029111;28;20445;-73
2021/10/29 04:18:27;;;;;;;0.00;0.00;;;;;;;4.96;78.19;99931.06;5030221;28;20029;-74
2021/10/29 04:20:54;;;;;;;0.00;0.00;;;;;;;4.90;77.83;99916.03;5025863;28;20021;-76
2021/10/29 04:23:19;;;;;;;0.00;0.00;;;;;;;4.96;77.40;99928.41;5031313;28;20072;-77
2021/10/29 04:25:45;;;;;;;0.08;0.08;;;;;;;4.96;76.69;99931.06;5031324;28;20025;-74
2021/10/29 04:28:12;;;;;;;0.00;0.00;;;;;;;4.96;76.47;99925.78;5032500;28;20028;-77
2021/10/29 04:30:39;;;;;;;0.00;0.00;;;;;;;4.87;75.73;99919.13;5064902;28;20111;-76
2021/10/29 04:33:07;;;;;;;0.00;0.00;;;;;;;4.92;75.37;99937.03;5065836;28;20036;-77
2021/10/29 04:35:34;;;;;;;0.00;0.00;;;;;;;4.88;75.37;99934.03;5050082;28;20104;-78
2021/10/29 04:38:01;;;;;;;0.00;0.00;;;;;;;4.83;75.04;99928.53;5048830;28;20033;-77
2021/10/29 04:40:26;;;;;;;0.00;0.00;;;;;;;4.81;75.40;99926.09;5049414;28;20058;-77
2021/10/29 04:42:52;;;;;;;0.93;0.65;;;;;;;4.77;75.03;99929.41;5050212;28;20570;-76
2021/10/29 04:45:18;;;;;;;0.00;0.00;;;;;;;4.73;75.06;99928.22;5048991;28;20482;-77
2021/10/29 04:47:44;;;;;;;0.00;0.00;;;;;;;4.74;75.18;99937.78;5048966;28;20036;-78
2021/10/29 04:50:09;;;;;;;0.00;0.00;;;;;;;4.61;75.43;99920.97;5049274;28;20033;-78
2021/10/29 04:52:36;;;;;;;0.00;0.00;;;;;;;4.63;75.70;99926.84;5049189;28;20029;-78
2021/10/29 04:55:01;;;;;;;0.00;0.00;;;;;;;4.72;75.96;99940.63;5049388;28;20029;-77
2021/10/29 04:57:27;;;;;;;0.00;0.00;;;;;;;4.72;75.97;99940.63;5049469;28;20036;-79
2021/10/29 04:59:52;;;;;;;0.00;0.00;;;;;;;4.78;76.12;99944.28;5049003;28;20041;-78
2021/10/29 05:02:18;;;;;;;0.00;0.00;;;;;;;4.83;76.19;99944.44;5049284;28;20063;-78
2021/10/29 05:04:43;;;;;;;0.00;0.00;;;;;;;4.92;76.43;99951.09;5048846;28;20070;-77
2021/10/29 05:07:09;;;;;;;0.00;0.00;;;;;;;4.97;76.48;99953.91;5049270;28;20078;-78
2021/10/29 05:09:34;;;;;;;0.15;0.15;;;;;;;5.04;76.71;99948.56;5048907;28;20470;-79
2021/10/29 05:11:59;;;;;;;0.00;0.00;;;;;;;5.16;76.66;99956.59;5049217;28;20127;-77
2021/10/29 05:14:25;;;;;;;0.00;0.00;;;;;;;5.28;76.74;99962.00;5049264;28;20536;-78
2021/10/29 05:16:51;;;;;;;0.00;0.00;;;;;;;5.41;76.93;99955.78;5048911;28;20039;-78
2021/10/29 05:19:17;;;;;;;0.00;0.00;;;;;;;5.56;76.84;99958.06;5049271;28;20029;-77
2021/10/29 05:21:43;;;;;;;0.00;0.00;;;;;;;5.67;76.38;99954.69;5048957;28;20033;-80
2021/10/29 05:24:09;;;;;;;0.00;0.00;;;;;;;5.86;76.62;99962.63;5049152;28;20029;-79
2021/10/29 05:26:36;;;;;;;0.00;0.00;;;;;;;5.97;76.08;99966.41;5048719;28;20460;-76
2021/10/29 05:29:02;;;;;;;0.00;0.00;;;;;;;6.09;75.64;99964.63;5049014;28;20060;-77
2021/10/29 05:31:28;;;;;;;0.00;0.00;;;;;;;6.23;75.38;99965.31;5050710;28;20120;-77
2021/10/29 05:33:53;;;;;;;0.00;0.00;;;;;;;6.36;75.18;99966.94;5048819;28;20043;-80
2021/10/29 05:36:18;;;;;;;0.00;0.00;;;;;;;6.49;74.73;99968.63;5049073;28;20029;-80
2021/10/29 05:38:44;;;;;;;0.00;0.00;;;;;;;6.60;74.37;99961.72;5048638;28;20041;-79
2021/10/29 05:41:11;;;;;;;0.00;0.00;;;;;;;6.78;74.07;99972.28;5048766;28;20024;-78
2021/10/29 05:43:37;;;;;;;0.10;0.10;;;;;;;6.93;73.67;99965.75;5048686;28;20033;-79
2021/10/29 05:46:03;;;;;;;0.00;0.00;;;;;;;7.14;72.93;99977.66;5048788;28;20106;-80
2021/10/29 05:48:28;;;;;;;0.00;0.00;;;;;;;7.22;72.49;99978.13;5050495;28;20035;-80
2021/10/29 05:50:55;;;;;;;0.00;0.00;;;;;;;7.41;72.38;99983.38;5052373;28;20037;-81
2021/10/29 05:55:56;;;;;;;0.30;0.30;;;;;;;7.68;71.26;99975.69;5053461;28;20024;-80
2021/10/29 05:58:21;;;;;;;0.00;0.00;;;;;;;7.82;70.84;99983.44;5052325;28;20025;-78
2021/10/29 06:00:47;;;;;;;0.00;0.00;;;;;;;7.96;70.11;99978.66;5052030;28;20119;-80
2021/10/29 06:03:14;;;;;;;0.00;0.00;;;;;;;8.10;70.29;99985.31;5052221;28;20474;-81
2021/10/29 06:05:39;;;;;;;0.38;0.38;;;;;;;8.21;69.59;99974.88;5051858;28;20036;-78
2021/10/29 06:08:05;;;;;;;0.45;0.20;;;;;;;8.38;68.90;99989.06;5052016;28;20086;-80
2021/10/29 06:10:31;;;;;;;0.05;0.05;;;;;;;8.48;68.26;99986.63;5052094;28;20017;-81
2021/10/29 06:12:57;;;;;;;0.10;0.10;;;;;;;8.57;68.06;99988.88;5051923;28;20086;-79
2021/10/29 06:15:23;;;;;;;0.00;0.00;;;;;;;8.65;67.69;99981.34;5052028;28;20123;-79
2021/10/29 06:17:48;;;;;;;0.00;0.00;;;;;;;8.74;67.90;99989.75;5051881;28;20025;-79
2021/10/29 06:20:16;;;;;;;0.00;0.00;;;;;;;8.84;67.62;99993.63;5052035;28;20469;-79
2021/10/29 06:22:52;;;;;;;0.00;0.00;;;;;;;8.97;67.79;100001.31;5051749;28;20040;-80
2021/10/29 06:25:20;;;;;;;0.00;0.00;;;;;;;9.07;67.71;100006.00;5051699;28;20029;-79
2021/10/29 06:30:36;;;;;;;0.68;0.68;;;;;;;9.20;67.98;100003.03;5053027;28;20044;-78
2021/10/29 06:33:03;;;;;;;0.00;0.00;;;;;;;9.23;67.91;99996.41;5051559;28;20032;-78
2021/10/29 06:35:30;;;;;;;0.00;0.00;;;;;;;9.29;68.40;100000.78;5051594;28;20036;-78
2021/10/29 06:37:58;;;;;;;0.00;0.00;;;;;;;9.40;68.24;100007.09;5051331;28;20568;-79
2021/10/29 06:40:25;;;;;;;0.00;0.00;;;;;;;9.41;68.31;100006.00;5051658;28;20033;-78
2021/10/29 06:42:54;;;;;;;0.55;0.55;;;;;;;9.45;69.02;100002.59;5051263;28;20049;-79
2021/10/29 06:45:44;;;;;;;19.27;1.65;;;;;;;9.54;68.90;100003.00;5051448;28;20029;-79
2021/10/29 07:43:00;;;;;;;0.70;0.70;;;;;;;11.90;61.95;99981.41;5051502;28;20049;-79
2021/10/29 07:45:27;;;;;;;0.00;0.00;;;;;;;11.93;61.68;99974.72;5050340;28;20482;-79
2021/10/29 07:47:56;;;;;;;0.00;0.00;;;;;;;11.94;61.63;99973.66;5049942;28;20401;-79
2021/10/29 07:50:22;;;;;;;0.13;0.13;;;;;;;12.01;61.41;99971.53;5050262;28;20403;-79
2021/10/29 07:52:51;;;;;;;0.10;0.10;;;;;;;11.94;61.05;99952.22;5049901;28;20041;-79
2021/10/29 07:55:18;;;;;;;0.00;0.00;;;;;;;11.86;60.95;99940.09;5050345;28;20439;-79
2021/10/29 07:57:46;;;;;;;0.00;0.00;;;;;;;12.03;60.75;99956.00;5049838;28;20036;-80
2021/10/29 08:00:13;;;;;;;0.10;0.10;;;;;;;12.05;59.43;99967.28;5050003;28;20047;-79
2021/10/29 08:02:39;;;;;;;0.05;0.05;;;;;;;12.03;59.39;99961.38;5050056;28;20021;-77
2021/10/29 08:05:05;;;;;;;0.95;0.95;;;;;;;12.01;59.74;99955.47;5049610;28;20150;-79
2021/10/29 08:07:31;;;;;;;0.15;0.15;;;;;;;11.99;58.79;99961.09;5049807;28;20031;-78
2021/10/29 08:09:59;;;;;;;0.30;0.30;;;;;;;12.00;60.30;99956.56;5049566;28;20128;-77
2021/10/29 08:12:24;;;;;;;0.52;0.52;;;;;;;12.04;60.01;99963.00;5049350;28;20025;-77
2021/10/29 08:14:50;;;;;;;0.15;0.15;;;;;;;12.01;60.11;99952.78;5049524;28;20037;-78
2021/10/29 08:17:16;;;;;;;0.75;0.75;;;;;;;12.06;60.13;99958.19;5049805;28;20032;-78
2021/10/29 08:19:42;;;;;;;0.52;0.52;;;;;;;12.06;60.33;99952.00;5049524;28;20037;-78
2021/10/29 08:22:08;;;;;;;0.00;0.00;;;;;;;12.15;59.91;99969.19;5049810;28;20413;-78
2021/10/29 08:24:36;;;;;;;0.10;0.10;;;;;;;12.15;60.33;99963.84;5049701;28;20032;-79
2021/10/29 08:27:02;;;;;;;0.00;0.00;;;;;;;12.10;59.40;99955.78;5066108;28;20027;-80
2021/10/29 08:29:27;;;;;;;1.20;0.95;;;;;;;12.17;59.14;99965.19;5049584;28;20029;-80
2021/10/29 08:31:53;;;;;;;0.90;0.57;;;;;;;12.18;59.15;99963.28;5049443;28;20033;-78
2021/10/29 08:34:22;;;;;;;0.50;0.50;;;;;;;12.21;59.75;99962.78;5049579;28;20127;-78
2021/10/29 08:36:47;;;;;;;;;;;;;;;12.27;58.51;99963.59;5049708;28;20413;-78
2021/10/29 08:39:14;;;;;;;0.52;0.43;;;;;;;12.24;59.55;99959.56;5049525;28;19909;-79
2021/10/29 08:41:43;;;;;;;0.52;0.52;;;;;;;12.28;59.14;99957.16;5049330;28;20059;-78
2021/10/29 08:44:09;;;;;;;1.05;0.50;;;;;;;12.26;58.60;99952.06;5049464;28;20031;-77
2021/10/29 08:46:35;;;;;;;2.83;1.00;;;;;;;12.29;58.12;99951.53;5049338;28;20021;-79
2021/10/29 08:49:01;;;;;;;0.52;0.52;;;;;;;12.37;57.88;99950.19;5049116;28;20075;-79
2021/10/29 08:51:27;;;;;;;0.00;0.00;;;;;;;12.46;57.23;99953.16;5049342;28;20032;-80
2021/10/29 08:53:55;;;;;;;1.20;0.82;;;;;;;12.48;56.41;99954.50;5048959;28;20036;-79
2021/10/29 08:56:21;;;;;;;0.40;0.40;;;;;;;12.41;56.32;99945.91;5066181;28;20117;-78
2021/10/29 08:59:04;;;;;;;0.00;0.00;;;;;;;12.48;57.35;99951.81;5049172;28;20055;-79
2021/10/29 09:02:08;;;;;;;0.93;0.68;;;;;;;12.55;57.15;99950.75;5049589;28;20448;-79
2021/10/29 09:04:58;;;;;;;0.32;0.30;;;;;;;12.56;55.97;99957.75;5049325;28;20056;-79
2021/10/29 09:07:41;;;;;;;0.00;0.00;;;;;;;12.62;56.56;99954.81;5049324;28;20025;-79
2021/10/29 09:32:30;;;;;;;0.40;0.40;;;;;;;13.16;56.27;99935.72;5054209;28;20094;-79
2021/10/29 09:35:08;;;;;;;0.17;0.17;;;;;;;13.12;55.40;99938.97;5052495;28;20090;-79
2021/10/29 09:37:53;;;;;;;0.55;0.55;;;;;;;13.06;56.00;99923.94;5054076;28;20099;-80
2021/10/29 09:40:20;;;;;;;0.10;0.10;;;;;;;13.12;56.01;99927.41;5052730;28;20066;-79
2021/10/29 09:42:46;;;;;;;0.10;0.10;;;;;;;13.14;56.03;99922.56;5052359;28;20112;-79
2021/10/29 09:45:18;;;;;;;0.47;0.47;;;;;;;13.16;55.14;99922.28;5052583;28;20094;-79
2021/10/29 09:47:51;;;;;;;0.20;0.20;;;;;;;13.17;54.27;99918.53;5052531;28;20033;-79
2021/10/29 09:50:27;;;;;;;0.28;0.28;;;;;;;13.12;53.93;99930.09;5069210;28;20142;-80
2021/10/29 09:53:03;;;;;;;0.22;0.22;;;;;;;13.05;54.69;99913.44;5052300;28;20029;-79
2021/10/29 09:56:06;;;;;;;0.55;0.55;;;;;;;13.09;54.88;99923.38;5052306;28;20029;-79
2021/10/29 09:58:22;;;;;;;0.00;0.00;;;;;;;13.08;56.46;99916.38;5049064;28;20028;-79
2021/10/29 10:00:49;;;;;;;1.13;0.68;;;;;;;13.12;54.85;99922.03;5051973;28;20029;-79
2021/10/29 10:03:18;;;;;;;0.55;0.55;;;;;;;13.11;55.54;99897.06;5068864;28;20070;-78
2021/10/29 10:05:45;;;;;;;0.10;0.10;;;;;;;13.12;55.78;99889.78;5052216;28;20056;-79
2021/10/29 10:08:12;;;;;;;0.10;0.10;;;;;;;13.26;54.84;99901.59;5051775;28;20465;-79
2021/10/29 10:10:40;;;;;;;0.30;0.30;;;;;;;13.24;53.71;99894.88;5052119;28;20029;-81
2021/10/29 10:13:06;;;;;;;;;;;;;;;13.25;53.73;99893.81;5052330;28;20447;-80
2021/10/29 10:15:35;;;;;;;2.72;0.50;;;;;;;13.24;53.15;99884.97;5051787;28;19909;-79
2021/10/29 10:18:01;;;;;;;0.10;0.10;;;;;;;13.28;53.14;99880.63;5051618;28;20120;-79
2021/10/29 10:20:29;;;;;;;1.20;1.20;;;;;;;13.29;53.05;99878.75;5051807;28;20112;-78
2021/10/29 10:22:56;;;;;;;0.13;0.13;;;;;;;13.30;52.78;99874.97;5051427;28;20543;-79
2021/10/29 10:28:36;;;;;;;0.20;0.20;;;;;;;13.40;54.08;99874.19;5052726;28;20120;-81
2021/10/29 10:47:06;;;;;;;0.15;0.15;;;;;;;13.80;54.23;99858.16;5052511;28;20052;-81
2021/10/29 10:49:37;;;;;;;0.20;0.20;;;;;;;13.87;54.58;99858.66;5051599;28;20032;-81
2021/10/29 10:52:30;;;;;;;0.47;0.47;;;;;;;13.89;55.61;99854.59;5051203;28;20112;-81
2021/10/29 10:55:05;;;;;;;0.20;0.20;;;;;;;13.92;55.11;99850.56;5051201;28;20536;-81
2021/10/29 11:11:04;;;;;;;2.35;2.15;;;;;;;14.10;48.91;99830.28;5052121;28;20033;-80
2021/10/29 11:13:45;;;;;;;0.40;0.40;;;;;;;14.20;50.02;99827.50;5050883;28;20076;-80
2021/10/29 11:16:22;;;;;;;0.10;0.10;;;;;;;14.27;48.26;99829.06;5051755;28;20021;-79
2021/10/29 11:18:58;;;;;;;0.30;0.30;;;;;;;14.22;47.72;99822.66;5050761;28;20037;-79
2021/10/29 11:21:34;;;;;;;0.43;0.43;;;;;;;14.21;45.97;99812.97;5050873;28;20125;-80
2021/10/29 11:24:01;;;;;;;0.47;0.47;;;;;;;14.13;46.46;99802.00;5050477;28;20028;-80
2021/10/29 11:26:41;;;;;;;0.20;0.20;;;;;;;14.21;47.25;99806.78;5050595;28;20520;-81
2021/10/29 11:29:08;;;;;;;0.10;0.10;;;;;;;14.28;46.43;99804.59;5050237;28;20407;-80
2021/10/29 11:31:36;;;;;;;0.25;0.25;;;;;;;14.26;46.31;99795.97;5050610;28;20035;-79
2021/10/29 11:34:05;;;;;;;0.10;0.10;;;;;;;14.34;44.91;99808.84;5050302;28;20491;-80
2021/10/29 11:36:34;;;;;;;0.10;0.10;;;;;;;14.43;45.83;99810.91;5050336;28;20453;-80
2021/10/29 11:39:00;;;;;;;;;;;;;;;14.51;45.52;99813.81;5050709;28;20033;-79
2021/10/29 11:41:29;;;;;;;0.10;0.10;;;;;;;14.47;45.27;99804.66;5050276;28;19932;-80
2021/10/29 11:44:04;;;;;;;2.55;0.80;;;;;;;14.43;44.36;99792.06;5050087;28;20064;-80
2021/10/29 11:46:32;;;;;;;0.10;0.10;;;;;;;14.53;43.45;99808.13;5049403;28;20028;-80
2021/10/29 11:48:59;;;;;;;0.00;0.00;;;;;;;14.54;43.74;99805.16;5050032;28;20509;-79
2021/10/29 11:51:25;;;;;;;0.10;0.10;;;;;;;14.57;42.65;99798.38;5050244;28;20169;-79
2021/10/29 12:07:24;;;;;;;0.10;0.10;;;;;;;14.49;43.25;99786.38;5050989;28;20036;-80
2021/10/29 12:10:04;;;;;;;0.17;0.17;;;;;;;14.45;41.78;99779.91;5066573;28;20029;-82
2021/10/29 12:12:31;;;;;;;0.20;0.20;;;;;;;14.44;42.29;99782.91;5049935;28;20028;-81
2021/10/29 12:15:10;;;;;;;0.20;0.20;;;;;;;14.31;42.49;99774.41;5049823;28;20021;-81
2021/10/29 12:20:18;;;;;;;0.23;0.23;;;;;;;14.32;43.02;99776.03;5050874;28;20021;-81
2021/10/29 12:22:52;;;;;;;0.25;0.25;;;;;;;14.35;42.62;99782.72;5049771;28;20260;-81
2021/10/29 12:28:14;;;;;;;0.20;0.20;;;;;;;14.41;41.96;99779.72;5050621;28;20441;-81
2021/10/29 12:30:59;;;;;;;0.65;0.20;;;;;;;14.48;41.54;99787.44;5049641;28;20490;-81
2021/10/29 13:03:37;;;;;;;0.22;0.22;;;;;;;14.41;44.53;99757.38;5054463;28;20044;-81
2021/10/29 13:06:07;;;;;;;6.90;0.80;;;;;;;14.50;44.95;99768.31;5053051;28;20025;-81
2021/10/29 13:08:37;;;;;;;0.10;0.10;;;;;;;14.50;44.60;99776.38;5069979;28;20033;-81
2021/10/29 13:11:02;;;;;;;0.43;0.43;;;;;;;14.53;44.72;99770.44;5052968;28;20477;-81
2021/10/29 13:13:34;;;;;;;1.17;0.80;;;;;;;14.54;44.77;99759.38;5053246;28;20044;-81
2021/10/29 13:16:03;;;;;;;0.57;0.57;;;;;;;14.49;44.65;99758.63;5052838;28;20086;-81
2021/10/29 13:22:10;;;;;;;0.15;0.15;;;;;;;14.46;46.08;99749.25;4999703;28;20038;-81
2021/10/29 13:51:39;;;;;;;0.65;0.65;;;;;;;14.39;50.03;99743.38;5011475;28;20065;-82
2021/10/29 13:59:29;;;;;;;0.00;0.00;;;;;;;14.36;50.73;99749.34;5053349;28;20413;-80
2021/10/29 14:29:24;;;;;;;0.22;0.22;;;;;;;14.34;51.90;99741.56;5052834;28;20355;-80
2021/10/29 14:31:56;;;;;;;0.10;0.10;;;;;;;14.32;51.93;99740.22;5051789;28;20535;-79
2021/10/29 14:34:26;;;;;;;0.20;0.20;;;;;;;14.32;52.04;99742.91;5051404;28;20142;-80
2021/10/29 14:37:00;;;;;;;0.10;0.10;;;;;;;14.32;52.09;99745.59;5051479;28;20610;-80
2021/10/29 14:44:45;;;;;;;0.10;0.10;;;;;;;14.30;52.18;99743.22;5052964;28;20721;-81
2021/10/29 14:47:30;;;;;;;0.10;0.10;;;;;;;14.34;52.38;99744.25;5051152;28;20086;-81
2021/10/29 14:50:14;;;;;;;0.08;0.08;;;;;;;14.32;52.60;99735.66;5051250;28;20021;-80
2021/10/29 15:30:22;;;;;;;;;;;;;;;13.71;54.23;99742.34;5022999;28;20041;-85
2021/10/29 15:46:19;;;;;;;0.57;0.57;;;;;;;13.32;55.78;99746.56;5030914;28;20572;-76
2021/10/29 15:48:52;;;;;;;0.10;0.10;;;;;;;13.31;55.64;99738.81;5029733;28;20566;-74
2021/10/29 15:51:17;;;;;;;0.32;0.32;;;;;;;13.28;55.65;99740.13;5029733;28;20026;-74
2021/10/29 15:53:44;;;;;;;1.23;1.00;;;;;;;13.33;55.76;99750.06;5029368;28;20036;-74
2021/10/29 15:58:58;;;;;;;0.00;0.00;;;;;;;13.24;55.99;99747.97;5031004;28;20474;-74
2021/10/29 16:17:48;;;;;;;0.20;0.20;;;;;;;13.02;57.14;99777.84;5031070;28;20041;-75
2021/10/29 16:20:14;;;;;;;0.00;0.00;;;;;;;12.94;57.21;99767.69;5045754;28;20053;-75
2021/10/29 16:22:39;;;;;;;0.40;0.40;;;;;;;12.90;57.57;99775.50;5031094;28;20072;-77
2021/10/29 16:25:53;;;;;;;2.00;0.63;;;;;;;12.89;57.42;99790.00;5029326;28;20446;-76
2021/10/29 16:30:17;;;;;;;0.75;0.75;;;;;;;12.77;57.71;99789.47;5030954;28;20040;-85
2021/10/29 16:33:43;;;;;;;3.92;0.43;;;;;;;12.69;57.89;99790.03;5030640;28;20029;-75
2021/10/29 16:35:39;;;;;;;1.10;1.05;;;;;;;12.61;58.12;99784.13;5021246;28;20037;-74
2021/10/29 16:38:09;;;;;;;1.13;1.05;;;;;;;12.62;57.96;99799.16;5029823;28;20483;-73
2021/10/29 16:40:35;;;;;;;2.47;2.33;;;;;;;12.53;58.31;99803.47;5030655;28;20112;-74
2021/10/29 16:43:01;;;;;;;0.95;0.95;;;;;;;12.45;58.54;99795.94;5029216;28;20149;-76
2021/10/29 16:45:27;;;;;;;0.68;0.68;;;;;;;12.43;58.71;99809.63;5028139;28;20021;-78
2021/10/29 16:47:52;;;;;;;0.30;0.30;;;;;;;12.26;59.28;99777.72;5029255;28;20414;-80
2021/10/29 16:50:23;;;;;;;0.80;0.80;;;;;;;12.36;59.21;99805.63;5029442;28;20112;-76
2021/10/29 16:52:49;;;;;;;0.40;0.40;;;;;;;12.34;59.82;99805.91;5029405;28;20021;-77
2021/10/29 16:55:16;;;;;;;0.85;0.85;;;;;;;12.31;59.74;99809.91;5028988;28;20028;-77
2021/10/29 16:57:42;;;;;;;0.00;0.00;;;;;;;12.32;59.95;99811.53;5028768;28;20022;-76